sensor_id;sensor_type;location;lat;lon;timestamp;pressure;altitude;pressure_sealevel;temperature;humidity
59029;BME280;45919;51.420;5.454;2022-08-01T00:00:49;101500.44;;;20.62;84.72
59029;BME280;45919;51.420;5.454;2022-08-01T00:01:51;101503.91;;;20.66;84.51
59029;BME280;45919;51.420;5.454;2022-08-01T00:02:52;101511.81;;;20.69;84.83
59029;BME280;45919;51.420;5.454;2022-08-01T00:03:54;101506.56;;;20.66;84.68
59029;BME280;45919;51.420;5.454;2022-08-01T00:04:56;101516.22;;;20.70;84.71
59029;BME280;45919;51.420;5.454;2022-08-01T00:05:57;101510.91;;;20.70;84.43
59029;BME280;45919;51.420;5.454;2022-08-01T00:06:59;101513.53;;;20.73;84.06
59029;BME280;45919;51.420;5.454;2022-08-01T00:08:01;101491.63;;;20.60;84.31
59029;BME280;45919;51.420;5.454;2022-08-01T00:09:03;101516.19;;;20.72;84.55
59029;BME280;45919;51.420;5.454;2022-08-01T00:10:08;101513.53;;;20.72;84.64
59029;BME280;45919;51.420;5.454;2022-08-01T00:11:10;101517.13;;;20.69;84.67
59029;BME280;45919;51.420;5.454;2022-08-01T00:12:11;101495.19;;;20.58;84.82
59029;BME280;45919;51.420;5.454;2022-08-01T00:13:13;101514.47;;;20.69;84.95
59029;BME280;45919;51.420;5.454;2022-08-01T00:14:15;101511.81;;;20.69;84.52
59029;BME280;45919;51.420;5.454;2022-08-01T00:15:17;101505.69;;;20.65;84.70
59029;BME280;45919;51.420;5.454;2022-08-01T00:16:18;101517.06;;;20.72;84.42
59029;BME280;45919;51.420;5.454;2022-08-01T00:17:20;101510.88;;;20.72;84.40
59029;BME280;45919;51.420;5.454;2022-08-01T00:18:22;101516.19;;;20.72;84.46
59029;BME280;45919;51.420;5.454;2022-08-01T00:19:23;101514.44;;;20.71;84.42
59029;BME280;45919;51.420;5.454;2022-08-01T00:20:25;101508.22;;;20.72;84.14
59029;BME280;45919;51.420;5.454;2022-08-01T00:21:27;101517.13;;;20.69;84.52
59029;BME280;45919;51.420;5.454;2022-08-01T00:22:30;101510.06;;;20.66;84.72
59029;BME280;45919;51.420;5.454;2022-08-01T00:23:32;101515.34;;;20.70;84.23
59029;BME280;45919;51.420;5.454;2022-08-01T00:24:34;101518.00;;;20.70;84.78
59029;BME280;45919;51.420;5.454;2022-08-01T00:25:35;101517.16;;;20.67;84.68
59029;BME280;45919;51.420;5.454;2022-08-01T00:26:37;101514.53;;;20.66;84.59
59029;BME280;45919;51.420;5.454;2022-08-01T00:27:39;101515.38;;;20.66;84.53
59029;BME280;45919;51.420;5.454;2022-08-01T00:28:41;101515.38;;;20.66;84.89
59029;BME280;45919;51.420;5.454;2022-08-01T00:29:42;101518.03;;;20.66;84.91
59029;BME280;45919;51.420;5.454;2022-08-01T00:30:44;101518.06;;;20.65;84.93
59029;BME280;45919;51.420;5.454;2022-08-01T00:31:45;101523.41;;;20.63;85.11
59029;BME280;45919;51.420;5.454;2022-08-01T00:32:47;101519.91;;;20.61;85.05
59029;BME280;45919;51.420;5.454;2022-08-01T00:33:49;101518.16;;;20.60;84.89
59029;BME280;45919;51.420;5.454;2022-08-01T00:34:50;101513.75;;;20.58;85.09
59029;BME280;45919;51.420;5.454;2022-08-01T00:35:52;101521.69;;;20.59;85.23
59029;BME280;45919;51.420;5.454;2022-08-01T00:36:54;101521.69;;;20.59;85.08
59029;BME280;45919;51.420;5.454;2022-08-01T00:37:55;101519.94;;;20.60;85.10
59029;BME280;45919;51.420;5.454;2022-08-01T00:38:57;101525.25;;;20.58;85.17
59029;BME280;45919;51.420;5.454;2022-08-01T00:39:58;101522.66;;;20.55;85.35
59029;BME280;45919;51.420;5.454;2022-08-01T00:41:00;101520.00;;;20.53;85.49
59029;BME280;45919;51.420;5.454;2022-08-01T00:42:12;101521.66;;;20.61;85.87
59029;BME280;45919;51.420;5.454;2022-08-01T00:43:14;101514.00;;;20.43;86.10
59029;BME280;45919;51.420;5.454;2022-08-01T00:44:16;101520.13;;;20.47;86.25
59029;BME280;45919;51.420;5.454;2022-08-01T00:45:17;101521.00;;;20.48;86.06
59029;BME280;45919;51.420;5.454;2022-08-01T00:46:19;101522.78;;;20.47;86.48
59029;BME280;45919;51.420;5.454;2022-08-01T00:47:21;101515.69;;;20.46;86.35
59029;BME280;45919;51.420;5.454;2022-08-01T00:48:22;101520.13;;;20.47;86.53
59029;BME280;45919;51.420;5.454;2022-08-01T00:49:24;101519.25;;;20.47;86.15
59029;BME280;45919;51.420;5.454;2022-08-01T00:50:26;101521.00;;;20.46;86.46
59029;BME280;45919;51.420;5.454;2022-08-01T00:51:28;101518.34;;;20.46;86.51
59029;BME280;45919;51.420;5.454;2022-08-01T00:52:30;101521.91;;;20.47;86.16
59029;BME280;45919;51.420;5.454;2022-08-01T00:53:32;101520.13;;;20.47;86.38
59029;BME280;45919;51.420;5.454;2022-08-01T00:54:34;101514.91;;;20.41;86.55
59029;BME280;45919;51.420;5.454;2022-08-01T00:55:35;101517.53;;;20.42;86.77
59029;BME280;45919;51.420;5.454;2022-08-01T00:56:37;101517.56;;;20.39;87.10
59029;BME280;45919;51.420;5.454;2022-08-01T00:57:39;101515.75;;;20.43;86.80
59029;BME280;45919;51.420;5.454;2022-08-01T00:58:42;101514.03;;;20.42;87.18
59029;BME280;45919;51.420;5.454;2022-08-01T00:59:43;101514.88;;;20.42;86.89
59029;BME280;45919;51.420;5.454;2022-08-01T01:00:45;101518.38;;;20.45;86.71
59029;BME280;45919;51.420;5.454;2022-08-01T01:01:47;101515.75;;;20.43;86.70
59029;BME280;45919;51.420;5.454;2022-08-01T01:02:49;101511.38;;;20.42;86.93
59029;BME280;45919;51.420;5.454;2022-08-01T01:03:52;101519.28;;;20.45;86.75
59029;BME280;45919;51.420;5.454;2022-08-01T01:04:58;101517.53;;;20.42;87.02
59029;BME280;45919;51.420;5.454;2022-08-01T01:07:48;101518.22;;;20.55;86.56
59029;BME280;45919;51.420;5.454;2022-08-01T01:09:15;101517.34;;;20.55;87.15
59029;BME280;45919;51.420;5.454;2022-08-01T01:10:32;101513.16;;;20.40;87.39
59029;BME280;45919;51.420;5.454;2022-08-01T01:11:43;101512.31;;;20.38;87.15
59029;BME280;45919;51.420;5.454;2022-08-01T01:12:54;101515.81;;;20.40;87.03
59029;BME280;45919;51.420;5.454;2022-08-01T01:14:00;101516.66;;;20.42;87.11
59029;BME280;45919;51.420;5.454;2022-08-01T01:15:15;101524.56;;;20.45;87.39
59029;BME280;45919;51.420;5.454;2022-08-01T01:16:20;101505.41;;;20.27;87.48
59029;BME280;45919;51.420;5.454;2022-08-01T01:17:28;101519.34;;;20.39;87.51
59029;BME280;45919;51.420;5.454;2022-08-01T01:18:38;101482.56;;;20.15;88.04
59029;BME280;45919;51.420;5.454;2022-08-01T01:19:50;101487.00;;;20.16;88.46
59029;BME280;45919;51.420;5.454;2022-08-01T01:24:47;101516.56;;;20.48;88.45
59029;BME280;45919;51.420;5.454;2022-08-01T01:27:21;101505.31;;;20.32;88.88
59029;BME280;45919;51.420;5.454;2022-08-01T01:28:50;101512.22;;;20.42;88.78
59029;BME280;45919;51.420;5.454;2022-08-01T01:29:56;101491.31;;;20.21;89.01
59029;BME280;45919;51.420;5.454;2022-08-01T01:30:58;101506.19;;;20.33;89.11
59029;BME280;45919;51.420;5.454;2022-08-01T01:32:13;101508.72;;;20.42;89.38
59029;BME280;45919;51.420;5.454;2022-08-01T01:33:16;101505.31;;;20.32;89.06
59029;BME280;45919;51.420;5.454;2022-08-01T01:34:22;101507.06;;;20.31;89.57
59029;BME280;45919;51.420;5.454;2022-08-01T01:35:27;101509.72;;;20.33;89.16
59029;BME280;45919;51.420;5.454;2022-08-01T01:36:30;101508.97;;;20.25;89.56
59029;BME280;45919;51.420;5.454;2022-08-01T01:37:35;101514.19;;;20.31;89.28
59029;BME280;45919;51.420;5.454;2022-08-01T01:38:42;101444.00;;;19.89;89.69
59029;BME280;45919;51.420;5.454;2022-08-01T01:39:48;101514.16;;;20.33;89.24
59029;BME280;45919;51.420;5.454;2022-08-01T01:40:51;101509.75;;;20.30;89.58
59029;BME280;45919;51.420;5.454;2022-08-01T01:41:55;101512.41;;;20.30;89.25
59029;BME280;45919;51.420;5.454;2022-08-01T01:42:58;101513.28;;;20.32;89.49
59029;BME280;45919;51.420;5.454;2022-08-01T01:44:00;101516.88;;;20.29;89.09
59029;BME280;45919;51.420;5.454;2022-08-01T01:45:04;101514.19;;;20.31;89.59
59029;BME280;45919;51.420;5.454;2022-08-01T01:46:07;101487.94;;;20.12;89.41
59029;BME280;45919;51.420;5.454;2022-08-01T01:47:12;101468.59;;;20.01;89.06
59029;BME280;45919;51.420;5.454;2022-08-01T01:48:18;101529.16;;;20.34;88.85
59029;BME280;45919;51.420;5.454;2022-08-01T01:49:23;101515.91;;;20.32;89.43
59029;BME280;45919;51.420;5.454;2022-08-01T01:50:27;101524.81;;;20.28;89.65
59029;BME280;45919;51.420;5.454;2022-08-01T01:51:30;101518.66;;;20.27;89.65
59029;BME280;45919;51.420;5.454;2022-08-01T01:52:33;101517.75;;;20.28;89.67
59029;BME280;45919;51.420;5.454;2022-08-01T01:53:36;101514.22;;;20.29;89.82
59029;BME280;45919;51.420;5.454;2022-08-01T01:54:40;101456.28;;;19.96;89.20
59029;BME280;45919;51.420;5.454;2022-08-01T01:55:45;101514.16;;;20.33;89.36
59029;BME280;45919;51.420;5.454;2022-08-01T01:56:49;101517.66;;;20.35;89.75
59029;BME280;45919;51.420;5.454;2022-08-01T01:57:52;101514.16;;;20.33;89.33
59029;BME280;45919;51.420;5.454;2022-08-01T01:58:58;101518.50;;;20.38;89.10
59029;BME280;45919;51.420;5.454;2022-08-01T02:00:00;101506.25;;;20.29;89.02
59029;BME280;45919;51.420;5.454;2022-08-01T02:01:03;101517.63;;;20.36;89.12
59029;BME280;45919;51.420;5.454;2022-08-01T02:02:06;101514.97;;;20.38;89.14
59029;BME280;45919;51.420;5.454;2022-08-01T02:03:10;101512.34;;;20.36;88.90
59029;BME280;45919;51.420;5.454;2022-08-01T02:04:13;101493.94;;;20.25;89.08
59029;BME280;45919;51.420;5.454;2022-08-01T02:05:15;101510.53;;;20.38;88.75
59029;BME280;45919;51.420;5.454;2022-08-01T02:06:17;101470.19;;;20.16;89.01
59029;BME280;45919;51.420;5.454;2022-08-01T02:07:22;101506.97;;;20.39;88.55
59029;BME280;45919;51.420;5.454;2022-08-01T02:08:26;101513.22;;;20.37;89.01
59029;BME280;45919;51.420;5.454;2022-08-01T02:09:30;101513.22;;;20.35;89.14
59029;BME280;45919;51.420;5.454;2022-08-01T02:10:35;101515.88;;;20.37;89.34
59029;BME280;45919;51.420;5.454;2022-08-01T02:11:38;101509.72;;;20.35;89.07
59029;BME280;45919;51.420;5.454;2022-08-01T02:12:43;101511.38;;;20.39;88.90
59029;BME280;45919;51.420;5.454;2022-08-01T02:13:52;101522.00;;;20.40;89.31
59029;BME280;45919;51.420;5.454;2022-08-01T02:14:55;101510.56;;;20.35;89.06
59029;BME280;45919;51.420;5.454;2022-08-01T02:15:58;101515.88;;;20.35;88.98
59029;BME280;45919;51.420;5.454;2022-08-01T02:17:01;101508.78;;;20.36;88.69
59029;BME280;45919;51.420;5.454;2022-08-01T02:18:06;101512.34;;;20.35;88.65
59029;BME280;45919;51.420;5.454;2022-08-01T02:19:08;101512.34;;;20.35;88.89
59029;BME280;45919;51.420;5.454;2022-08-01T02:20:12;101493.13;;;20.20;88.90
59029;BME280;45919;51.420;5.454;2022-08-01T02:21:17;101507.97;;;20.32;88.98
59029;BME280;45919;51.420;5.454;2022-08-01T02:22:27;101462.34;;;20.05;89.39
59029;BME280;45919;51.420;5.454;2022-08-01T02:23:34;101491.38;;;20.17;89.29
59029;BME280;45919;51.420;5.454;2022-08-01T02:24:54;101520.19;;;20.42;89.24
59029;BME280;45919;51.420;5.454;2022-08-01T02:25:57;101520.41;;;20.28;88.85
59029;BME280;45919;51.420;5.454;2022-08-01T02:27:01;101500.13;;;20.23;89.57
59029;BME280;45919;51.420;5.454;2022-08-01T02:28:09;101491.50;;;20.08;89.84
59029;BME280;45919;51.420;5.454;2022-08-01T02:29:16;101514.22;;;20.28;89.76
59029;BME280;45919;51.420;5.454;2022-08-01T02:30:21;101508.06;;;20.26;89.44
59029;BME280;45919;51.420;5.454;2022-08-01T02:31:26;101508.13;;;20.21;89.78
59029;BME280;45919;51.420;5.454;2022-08-01T02:33:42;101497.59;;;20.16;90.12
59029;BME280;45919;51.420;5.454;2022-08-01T02:34:46;101512.47;;;20.27;89.50
59029;BME280;45919;51.420;5.454;2022-08-01T02:35:54;101508.03;;;20.27;90.00
59029;BME280;45919;51.420;5.454;2022-08-01T02:36:58;101511.63;;;20.23;89.96
59029;BME280;45919;51.420;5.454;2022-08-01T02:38:04;101508.97;;;20.25;90.09
59029;BME280;45919;51.420;5.454;2022-08-01T02:39:13;101492.31;;;20.13;90.37
59029;BME280;45919;51.420;5.454;2022-08-01T02:40:17;101516.94;;;20.23;89.92
59029;BME280;45919;51.420;5.454;2022-08-01T02:41:22;101518.69;;;20.23;90.35
59029;BME280;45919;51.420;5.454;2022-08-01T02:42:26;101513.41;;;20.23;90.05
59029;BME280;45919;51.420;5.454;2022-08-01T02:43:30;101511.66;;;20.22;90.28
59029;BME280;45919;51.420;5.454;2022-08-01T02:44:37;101508.09;;;20.23;90.44
59029;BME280;45919;51.420;5.454;2022-08-01T02:45:43;101509.84;;;20.25;90.42
59029;BME280;45919;51.420;5.454;2022-08-01T02:46:52;101507.13;;;20.28;90.40
59029;BME280;45919;51.420;5.454;2022-08-01T02:48:07;101500.06;;;20.29;89.98
59029;BME280;45919;51.420;5.454;2022-08-01T02:49:11;101504.53;;;20.25;89.83
59029;BME280;45919;51.420;5.454;2022-08-01T02:50:15;101504.47;;;20.28;89.48
59029;BME280;45919;51.420;5.454;2022-08-01T02:51:19;101506.25;;;20.28;89.84
59029;BME280;45919;51.420;5.454;2022-08-01T02:52:25;101497.53;;;20.19;90.06
59029;BME280;45919;51.420;5.454;2022-08-01T02:53:31;101497.47;;;20.24;89.49
59029;BME280;45919;51.420;5.454;2022-08-01T02:54:34;101504.47;;;20.28;89.22
59029;BME280;45919;51.420;5.454;2022-08-01T02:55:38;101493.06;;;20.23;89.19
59029;BME280;45919;51.420;5.454;2022-08-01T02:56:41;101501.88;;;20.25;89.24
59029;BME280;45919;51.420;5.454;2022-08-01T02:57:44;101514.22;;;20.26;89.37
59029;BME280;45919;51.420;5.454;2022-08-01T02:58:49;101503.69;;;20.23;89.67
59029;BME280;45919;51.420;5.454;2022-08-01T02:59:53;101502.84;;;20.19;90.03
59029;BME280;45919;51.420;5.454;2022-08-01T03:00:58;101507.19;;;20.25;89.73
59029;BME280;45919;51.420;5.454;2022-08-01T03:02:01;101506.25;;;20.28;89.31
59029;BME280;45919;51.420;5.454;2022-08-01T03:03:06;101502.72;;;20.29;89.33
59029;BME280;45919;51.420;5.454;2022-08-01T03:04:10;101504.53;;;20.25;88.95
59029;BME280;45919;51.420;5.454;2022-08-01T03:05:12;101506.31;;;20.25;88.86
59029;BME280;45919;51.420;5.454;2022-08-01T03:06:16;101507.13;;;20.28;89.42
59029;BME280;45919;51.420;5.454;2022-08-01T03:07:19;101506.31;;;20.25;89.09
59029;BME280;45919;51.420;5.454;2022-08-01T03:08:23;101487.06;;;20.10;89.08
59029;BME280;45919;51.420;5.454;2022-08-01T03:09:26;101489.66;;;20.15;89.40
59029;BME280;45919;51.420;5.454;2022-08-01T03:10:29;101513.38;;;20.26;89.17
59029;BME280;45919;51.420;5.454;2022-08-01T03:11:33;101494.03;;;20.17;89.16
59029;BME280;45919;51.420;5.454;2022-08-01T03:12:37;101512.50;;;20.25;89.27
59029;BME280;45919;51.420;5.454;2022-08-01T03:13:41;101514.28;;;20.23;89.08
59029;BME280;45919;51.420;5.454;2022-08-01T03:14:46;101509.81;;;20.27;89.43
59029;BME280;45919;51.420;5.454;2022-08-01T03:15:49;101512.50;;;20.25;89.16
59029;BME280;45919;51.420;5.454;2022-08-01T03:16:52;101505.56;;;20.16;89.60
59029;BME280;45919;51.420;5.454;2022-08-01T03:17:55;101513.38;;;20.26;89.43
59029;BME280;45919;51.420;5.454;2022-08-01T03:19:00;101511.59;;;20.26;89.40
59029;BME280;45919;51.420;5.454;2022-08-01T03:20:04;101515.16;;;20.25;89.40
59029;BME280;45919;51.420;5.454;2022-08-01T03:21:06;101512.53;;;20.24;89.06
59029;BME280;45919;51.420;5.454;2022-08-01T03:22:12;101520.41;;;20.28;88.77
59029;BME280;45919;51.420;5.454;2022-08-01T03:23:15;101519.53;;;20.26;88.79
59029;BME280;45919;51.420;5.454;2022-08-01T03:24:19;101500.22;;;20.18;88.94
59029;BME280;45919;51.420;5.454;2022-08-01T03:25:21;101515.13;;;20.27;88.72
59029;BME280;45919;51.420;5.454;2022-08-01T03:26:31;101514.09;;;20.36;89.05
59029;BME280;45919;51.420;5.454;2022-08-01T03:27:36;101510.72;;;20.26;88.51
59029;BME280;45919;51.420;5.454;2022-08-01T03:28:40;101513.34;;;20.27;88.79
59029;BME280;45919;51.420;5.454;2022-08-01T03:29:44;101517.75;;;20.28;88.52
59029;BME280;45919;51.420;5.454;2022-08-01T03:30:47;101523.06;;;20.27;87.92
59029;BME280;45919;51.420;5.454;2022-08-01T03:31:49;101517.78;;;20.25;87.70
59029;BME280;45919;51.420;5.454;2022-08-01T03:32:51;101515.19;;;20.22;88.09
59029;BME280;45919;51.420;5.454;2022-08-01T03:33:53;101524.03;;;20.21;88.03
59029;BME280;45919;51.420;5.454;2022-08-01T03:34:55;101523.16;;;20.22;87.55
59029;BME280;45919;51.420;5.454;2022-08-01T03:36:00;101523.97;;;20.24;88.04
59029;BME280;45919;51.420;5.454;2022-08-01T03:38:08;101526.72;;;20.19;87.27
59029;BME280;45919;51.420;5.454;2022-08-01T03:39:16;101532.97;;;20.15;88.05
59029;BME280;45919;51.420;5.454;2022-08-01T03:40:25;101523.19;;;20.17;87.97
59029;BME280;45919;51.420;5.454;2022-08-01T03:41:32;101522.38;;;20.14;88.20
59029;BME280;45919;51.420;5.454;2022-08-01T03:42:38;101523.28;;;20.13;88.04
59029;BME280;45919;51.420;5.454;2022-08-01T03:43:45;101525.06;;;20.12;87.86
59029;BME280;45919;51.420;5.454;2022-08-01T03:44:53;101523.22;;;20.16;87.96
59029;BME280;45919;51.420;5.454;2022-08-01T03:45:56;101521.56;;;20.09;87.78
59029;BME280;45919;51.420;5.454;2022-08-01T03:47:05;101523.28;;;20.13;87.87
59029;BME280;45919;51.420;5.454;2022-08-01T03:48:14;101524.16;;;20.15;87.92
59029;BME280;45919;51.420;5.454;2022-08-01T03:49:20;101519.78;;;20.11;87.41
59029;BME280;45919;51.420;5.454;2022-08-01T03:50:24;101523.34;;;20.05;87.66
59029;BME280;45919;51.420;5.454;2022-08-01T03:51:27;101528.66;;;20.06;87.73
59029;BME280;45919;51.420;5.454;2022-08-01T03:52:30;101518.06;;;20.03;87.91
59029;BME280;45919;51.420;5.454;2022-08-01T03:53:33;101518.09;;;20.02;87.61
59029;BME280;45919;51.420;5.454;2022-08-01T03:54:40;101521.56;;;20.09;87.65
59029;BME280;45919;51.420;5.454;2022-08-01T03:55:43;101525.13;;;20.07;87.44
59029;BME280;45919;51.420;5.454;2022-08-01T03:56:46;101487.34;;;19.88;87.12
59029;BME280;45919;51.420;5.454;2022-08-01T03:57:50;101517.16;;;20.06;86.97
59029;BME280;45919;51.420;5.454;2022-08-01T03:58:52;101515.41;;;20.03;86.78
59029;BME280;45919;51.420;5.454;2022-08-01T03:59:58;101519.81;;;20.09;86.73
59029;BME280;45919;51.420;5.454;2022-08-01T04:01:00;101520.69;;;20.05;86.82
59029;BME280;45919;51.420;5.454;2022-08-01T04:02:02;101507.56;;;19.95;86.77
59029;BME280;45919;51.420;5.454;2022-08-01T04:03:06;101524.25;;;20.02;86.82
59029;BME280;45919;51.420;5.454;2022-08-01T04:04:08;101525.13;;;20.06;86.90
59029;BME280;45919;51.420;5.454;2022-08-01T04:05:10;101522.47;;;20.06;86.60
59029;BME280;45919;51.420;5.454;2022-08-01T04:06:12;101515.44;;;20.02;86.16
59029;BME280;45919;51.420;5.454;2022-08-01T04:07:22;101518.88;;;20.10;86.87
59029;BME280;45919;51.420;5.454;2022-08-01T04:08:42;101515.25;;;20.17;86.66
59029;BME280;45919;51.420;5.454;2022-08-01T04:09:44;101519.81;;;20.09;86.23
59029;BME280;45919;51.420;5.454;2022-08-01T04:10:45;101522.47;;;20.07;86.02
59029;BME280;45919;51.420;5.454;2022-08-01T04:11:47;101521.59;;;20.07;85.88
59029;BME280;45919;51.420;5.454;2022-08-01T04:12:50;101497.94;;;19.88;86.07
59029;BME280;45919;51.420;5.454;2022-08-01T04:13:52;101526.91;;;20.07;85.80
59029;BME280;45919;51.420;5.454;2022-08-01T04:14:54;101526.91;;;20.05;85.82
59029;BME280;45919;51.420;5.454;2022-08-01T04:15:56;101529.59;;;20.01;86.37
59029;BME280;45919;51.420;5.454;2022-08-01T04:16:57;101519.06;;;19.96;86.17
59029;BME280;45919;51.420;5.454;2022-08-01T04:17:59;101532.22;;;20.02;86.36
59029;BME280;45919;51.420;5.454;2022-08-01T04:19:00;101527.84;;;20.00;86.19
59029;BME280;45919;51.420;5.454;2022-08-01T04:20:02;101520.81;;;19.95;86.27
59029;BME280;45919;51.420;5.454;2022-08-01T04:21:04;101531.34;;;20.03;86.15
59029;BME280;45919;51.420;5.454;2022-08-01T04:22:06;101527.75;;;20.04;86.13
59029;BME280;45919;51.420;5.454;2022-08-01T04:23:10;101526.91;;;20.07;86.00
59029;BME280;45919;51.420;5.454;2022-08-01T04:24:17;101532.09;;;20.13;85.91
59029;BME280;45919;51.420;5.454;2022-08-01T04:25:29;101529.44;;;20.15;86.18
59029;BME280;45919;51.420;5.454;2022-08-01T04:26:34;101510.25;;;19.94;86.02
59029;BME280;45919;51.420;5.454;2022-08-01T04:27:39;101534.81;;;20.09;86.03
59029;BME280;45919;51.420;5.454;2022-08-01T04:28:42;101533.97;;;20.05;86.12
59029;BME280;45919;51.420;5.454;2022-08-01T04:29:46;101534.88;;;20.05;86.21
59029;BME280;45919;51.420;5.454;2022-08-01T04:30:50;101531.34;;;20.03;86.07
59029;BME280;45919;51.420;5.454;2022-08-01T04:31:54;101541.91;;;20.05;86.05
59029;BME280;45919;51.420;5.454;2022-08-01T04:32:59;101505.09;;;19.83;86.85
59029;BME280;45919;51.420;5.454;2022-08-01T04:34:03;101537.50;;;20.02;86.97
59029;BME280;45919;51.420;5.454;2022-08-01T04:35:07;101534.00;;;20.00;86.56
59029;BME280;45919;51.420;5.454;2022-08-01T04:36:12;101512.06;;;19.90;86.96
59029;BME280;45919;51.420;5.454;2022-08-01T04:37:16;101537.56;;;19.99;87.31
59029;BME280;45919;51.420;5.454;2022-08-01T04:38:21;101518.16;;;19.95;87.07
59029;BME280;45919;51.420;5.454;2022-08-01T04:39:24;101536.66;;;20.02;86.92
59029;BME280;45919;51.420;5.454;2022-08-01T04:40:32;101531.34;;;20.00;87.19
59029;BME280;45919;51.420;5.454;2022-08-01T04:41:37;101537.56;;;19.99;87.47
59029;BME280;45919;51.420;5.454;2022-08-01T04:42:39;101536.69;;;19.99;87.72
59029;BME280;45919;51.420;5.454;2022-08-01T04:43:42;101543.75;;;20.00;87.58
59029;BME280;45919;51.420;5.454;2022-08-01T04:44:44;101539.31;;;20.00;87.42
59029;BME280;45919;51.420;5.454;2022-08-01T04:45:47;101521.75;;;19.91;87.38
59029;BME280;45919;51.420;5.454;2022-08-01T04:46:49;101511.28;;;19.80;87.48
59029;BME280;45919;51.420;5.454;2022-08-01T04:47:52;101543.69;;;20.04;87.71
59029;BME280;45919;51.420;5.454;2022-08-01T04:48:55;101558.72;;;20.07;87.14
59029;BME280;45919;51.420;5.454;2022-08-01T04:49:57;101556.94;;;20.07;87.53
59029;BME280;45919;51.420;5.454;2022-08-01T04:51:00;101553.38;;;20.10;87.31
59029;BME280;45919;51.420;5.454;2022-08-01T04:52:02;101556.91;;;20.11;87.07
59029;BME280;45919;51.420;5.454;2022-08-01T04:53:03;101556.00;;;20.10;87.10
59029;BME280;45919;51.420;5.454;2022-08-01T04:54:05;101551.56;;;20.12;86.62
59029;BME280;45919;51.420;5.454;2022-08-01T04:55:09;101523.53;;;19.91;86.25
59029;BME280;45919;51.420;5.454;2022-08-01T04:56:12;101562.16;;;20.14;86.36
59029;BME280;45919;51.420;5.454;2022-08-01T04:57:16;101561.25;;;20.16;86.40
59029;BME280;45919;51.420;5.454;2022-08-01T04:58:18;101561.28;;;20.15;86.39
59029;BME280;45919;51.420;5.454;2022-08-01T04:59:20;101564.81;;;20.14;86.54
59029;BME280;45919;51.420;5.454;2022-08-01T05:00:41;101568.34;;;20.14;86.50
59029;BME280;45919;51.420;5.454;2022-08-01T05:01:48;101564.75;;;20.20;86.70
59029;BME280;45919;51.420;5.454;2022-08-01T05:02:49;101537.53;;;20.01;86.30
59029;BME280;45919;51.420;5.454;2022-08-01T05:03:51;101563.94;;;20.15;86.30
59029;BME280;45919;51.420;5.454;2022-08-01T05:04:53;101552.53;;;20.05;86.43
59029;BME280;45919;51.420;5.454;2022-08-01T05:05:56;101567.47;;;20.12;86.47
59029;BME280;45919;51.420;5.454;2022-08-01T05:06:58;101537.56;;;19.99;86.49
59029;BME280;45919;51.420;5.454;2022-08-01T05:07:59;101553.44;;;20.02;86.68
59029;BME280;45919;51.420;5.454;2022-08-01T05:09:01;101572.81;;;20.11;86.44
59029;BME280;45919;51.420;5.454;2022-08-01T05:10:04;101570.13;;;20.12;86.80
59029;BME280;45919;51.420;5.454;2022-08-01T05:11:06;101576.31;;;20.13;86.86
59029;BME280;45919;51.420;5.454;2022-08-01T05:12:09;101575.44;;;20.12;87.03
59029;BME280;45919;51.420;5.454;2022-08-01T05:13:12;101580.72;;;20.14;86.91
59029;BME280;45919;51.420;5.454;2022-08-01T05:14:13;101572.75;;;20.14;86.91
59029;BME280;45919;51.420;5.454;2022-08-01T05:15:15;101578.03;;;20.15;86.89
59029;BME280;45919;51.420;5.454;2022-08-01T05:16:17;101577.16;;;20.16;86.98
59029;BME280;45919;51.420;5.454;2022-08-01T05:17:19;101561.41;;;20.05;87.02
59029;BME280;45919;51.420;5.454;2022-08-01T05:18:20;101574.59;;;20.09;87.04
59029;BME280;45919;51.420;5.454;2022-08-01T05:19:23;101581.63;;;20.13;87.12
59029;BME280;45919;51.420;5.454;2022-08-01T05:20:24;101586.03;;;20.12;87.01
59029;BME280;45919;51.420;5.454;2022-08-01T05:21:26;101571.09;;;20.06;87.01
59029;BME280;45919;51.420;5.454;2022-08-01T05:22:27;101520.19;;;19.76;87.10
59029;BME280;45919;51.420;5.454;2022-08-01T05:23:29;101578.06;;;20.14;86.88
59029;BME280;45919;51.420;5.454;2022-08-01T05:24:31;101583.34;;;20.15;85.13
59029;BME280;45919;51.420;5.454;2022-08-01T05:25:33;101580.72;;;20.14;85.68
59029;BME280;45919;51.420;5.454;2022-08-01T05:26:35;101564.03;;;20.02;85.99
59029;BME280;45919;51.420;5.454;2022-08-01T05:27:37;101572.78;;;20.12;85.60
59029;BME280;45919;51.420;5.454;2022-08-01T05:28:41;101586.00;;;20.15;84.81
59029;BME280;45919;51.420;5.454;2022-08-01T05:29:43;101574.53;;;20.15;84.88
59029;BME280;45919;51.420;5.454;2022-08-01T05:30:45;101580.69;;;20.18;84.18
59029;BME280;45919;51.420;5.454;2022-08-01T05:31:46;101586.81;;;20.21;84.36
59029;BME280;45919;51.420;5.454;2022-08-01T05:32:48;101587.78;;;20.16;84.71
59029;BME280;45919;51.420;5.454;2022-08-01T05:33:50;101575.41;;;20.14;84.92
59029;BME280;45919;51.420;5.454;2022-08-01T05:34:51;101578.94;;;20.16;84.63
59029;BME280;45919;51.420;5.454;2022-08-01T05:35:53;101580.72;;;20.14;84.35
59029;BME280;45919;51.420;5.454;2022-08-01T05:36:54;101584.31;;;20.11;84.56
59029;BME280;45919;51.420;5.454;2022-08-01T05:37:57;101585.16;;;20.12;84.74
59029;BME280;45919;51.420;5.454;2022-08-01T05:38:59;101579.00;;;20.11;84.72
59029;BME280;45919;51.420;5.454;2022-08-01T05:40:01;101589.59;;;20.11;83.81
59029;BME280;45919;51.420;5.454;2022-08-01T05:41:03;101583.47;;;20.07;83.92
59029;BME280;45919;51.420;5.454;2022-08-01T05:42:05;101593.13;;;20.10;84.10
59029;BME280;45919;51.420;5.454;2022-08-01T05:43:06;101589.66;;;20.06;84.44
59029;BME280;45919;51.420;5.454;2022-08-01T05:44:08;101587.88;;;20.09;84.71